Terminal Aerodrome Forecast
Issued by NWS Wilmington, OH

Current Version | Previous Version | Text Only | Print | Product List | Glossary Off
Versions: 1 2 3 4 5 6 7 8 9 10 11 12 13 14 15 16

000
FTUS41 KILN 150800 AAA
TAFDAY
TAF AMD
KDAY 150858Z 1509/1606 33012G20KT 4SM -SN OVC006
      TEMPO 1509/1510 1SM -SN
     FM151100 33012G20KT P6SM OVC008
     FM151400 32014G22KT P6SM BKN015
     FM151800 32014G22KT P6SM BKN035
     FM152300 32005KT P6SM SKC=

USA.gov is the U.S. government's official web portal to all federal, state and local government web resources and services.